CheckWX is a tool to help pilots better visualize weather data.  It is not intended as a substitute for an official pre-flight weather briefing.

23:39:57 UTC

AGGM METAR
Munda Airport
Solomon Islands
Current

40 mins ago

AGGM 242300Z SASO31
Observed
May-24 @ 23:00 UTC
Visibility
Conditions
Sand
Previous

20 hours ago

AGGM 240400Z 14008KT 9999 HZ FEW018 SCT310 30/24 Q1009
Observed
May-24 @ 04:00 UTC
Wind
  • 140° at 8 KTS
Visibility
10,000+ meters
Flight Rules
VFR
Conditions
Haze
Cloud Levels
  • Few at 1,800' AGL
  • Scattered at 31,000' AGL
Temperature
30°C / 86°F
Dewpoint
24°C / 75°F
Heat Index
35°C / 95°F
Humidity
70%
Altimeter
29.79" Hg
Pressure
1008.92 hPa
Previous

21 hours ago

AGGM 240300Z 14013KT 9999 HZ FEW018 SCT310 30/24 Q1009
Observed
May-24 @ 03:00 UTC
Wind
  • 140° at 13 KTS
Visibility
10,000+ meters
Flight Rules
VFR
Conditions
Haze
Cloud Levels
  • Few at 1,800' AGL
  • Scattered at 31,000' AGL
Temperature
30°C / 86°F
Dewpoint
24°C / 75°F
Heat Index
35°C / 95°F
Humidity
70%
Altimeter
29.79" Hg
Pressure
1008.92 hPa